sensor_id;sensor_type;location;lat;lon;timestamp;P1;durP1;ratioP1;P2;durP2;ratioP2
59728;SDS011;45588;51.598;5.618;2022-12-18T00:03:43;56.30;;;23.50;;
59728;SDS011;45588;51.598;5.618;2022-12-18T00:06:08;56.03;;;23.48;;
59728;SDS011;45588;51.598;5.618;2022-12-18T00:08:34;61.05;;;25.80;;
59728;SDS011;45588;51.598;5.618;2022-12-18T00:11:05;61.25;;;24.58;;
59728;SDS011;45588;51.598;5.618;2022-12-18T00:13:31;49.17;;;22.65;;
59728;SDS011;45588;51.598;5.618;2022-12-18T00:16:00;63.70;;;25.02;;
59728;SDS011;45588;51.598;5.618;2022-12-18T00:18:26;64.00;;;23.88;;
59728;SDS011;45588;51.598;5.618;2022-12-18T00:20:51;63.88;;;27.80;;
59728;SDS011;45588;51.598;5.618;2022-12-18T00:23:16;59.33;;;27.10;;
59728;SDS011;45588;51.598;5.618;2022-12-18T00:25:41;51.50;;;22.80;;
59728;SDS011;45588;51.598;5.618;2022-12-18T00:28:06;57.08;;;23.08;;
59728;SDS011;45588;51.598;5.618;2022-12-18T00:30:32;62.45;;;24.67;;
59728;SDS011;45588;51.598;5.618;2022-12-18T00:32:57;49.88;;;22.42;;
59728;SDS011;45588;51.598;5.618;2022-12-18T00:35:22;57.53;;;25.08;;
59728;SDS011;45588;51.598;5.618;2022-12-18T00:37:47;64.03;;;24.13;;
59728;SDS011;45588;51.598;5.618;2022-12-18T00:40:13;53.08;;;24.00;;
59728;SDS011;45588;51.598;5.618;2022-12-18T00:42:38;58.60;;;24.55;;
59728;SDS011;45588;51.598;5.618;2022-12-18T00:45:22;52.55;;;23.58;;
59728;SDS011;45588;51.598;5.618;2022-12-18T00:47:50;54.90;;;21.90;;
59728;SDS011;45588;51.598;5.618;2022-12-18T00:50:16;62.22;;;26.08;;
59728;SDS011;45588;51.598;5.618;2022-12-18T00:52:41;56.65;;;25.08;;
59728;SDS011;45588;51.598;5.618;2022-12-18T00:55:06;61.17;;;25.42;;
59728;SDS011;45588;51.598;5.618;2022-12-18T00:57:31;50.53;;;25.35;;
59728;SDS011;45588;51.598;5.618;2022-12-18T00:59:57;50.92;;;23.33;;
59728;SDS011;45588;51.598;5.618;2022-12-18T01:02:22;54.70;;;24.85;;
59728;SDS011;45588;51.598;5.618;2022-12-18T01:04:47;50.78;;;22.95;;
59728;SDS011;45588;51.598;5.618;2022-12-18T01:07:12;62.13;;;25.30;;
59728;SDS011;45588;51.598;5.618;2022-12-18T01:09:38;48.83;;;21.67;;
59728;SDS011;45588;51.598;5.618;2022-12-18T01:12:03;57.45;;;21.63;;
59728;SDS011;45588;51.598;5.618;2022-12-18T01:14:28;62.03;;;26.08;;
59728;SDS011;45588;51.598;5.618;2022-12-18T01:16:53;67.75;;;25.25;;
59728;SDS011;45588;51.598;5.618;2022-12-18T01:19:18;54.33;;;21.88;;
59728;SDS011;45588;51.598;5.618;2022-12-18T01:21:44;59.60;;;24.73;;
59728;SDS011;45588;51.598;5.618;2022-12-18T01:24:10;45.08;;;21.35;;
59728;SDS011;45588;51.598;5.618;2022-12-18T01:26:36;56.30;;;22.40;;
59728;SDS011;45588;51.598;5.618;2022-12-18T01:29:01;49.15;;;21.25;;
59728;SDS011;45588;51.598;5.618;2022-12-18T01:31:27;54.13;;;22.05;;
59728;SDS011;45588;51.598;5.618;2022-12-18T01:33:53;52.92;;;23.40;;
59728;SDS011;45588;51.598;5.618;2022-12-18T01:36:19;50.95;;;21.80;;
59728;SDS011;45588;51.598;5.618;2022-12-18T01:38:45;47.55;;;21.35;;
59728;SDS011;45588;51.598;5.618;2022-12-18T01:41:10;55.80;;;22.63;;
59728;SDS011;45588;51.598;5.618;2022-12-18T01:43:43;51.17;;;20.95;;
59728;SDS011;45588;51.598;5.618;2022-12-18T01:46:09;55.42;;;22.67;;
59728;SDS011;45588;51.598;5.618;2022-12-18T01:48:34;56.00;;;21.83;;
59728;SDS011;45588;51.598;5.618;2022-12-18T01:50:59;54.53;;;22.55;;
59728;SDS011;45588;51.598;5.618;2022-12-18T01:53:24;48.70;;;22.60;;
59728;SDS011;45588;51.598;5.618;2022-12-18T01:55:53;52.65;;;23.17;;
59728;SDS011;45588;51.598;5.618;2022-12-18T01:58:21;48.00;;;19.67;;
59728;SDS011;45588;51.598;5.618;2022-12-18T02:00:48;52.00;;;23.95;;
59728;SDS011;45588;51.598;5.618;2022-12-18T02:03:13;49.85;;;22.67;;
59728;SDS011;45588;51.598;5.618;2022-12-18T02:08:26;40.60;;;19.90;;
59728;SDS011;45588;51.598;5.618;2022-12-18T02:11:05;44.85;;;20.77;;
59728;SDS011;45588;51.598;5.618;2022-12-18T02:19:00;46.25;;;21.35;;
59728;SDS011;45588;51.598;5.618;2022-12-18T02:24:14;52.55;;;21.83;;
59728;SDS011;45588;51.598;5.618;2022-12-18T02:26:46;47.53;;;20.65;;
59728;SDS011;45588;51.598;5.618;2022-12-18T02:29:13;48.13;;;20.63;;
59728;SDS011;45588;51.598;5.618;2022-12-18T02:31:42;47.90;;;23.10;;
59728;SDS011;45588;51.598;5.618;2022-12-18T02:34:08;56.50;;;25.00;;
59728;SDS011;45588;51.598;5.618;2022-12-18T02:36:34;50.30;;;21.50;;
59728;SDS011;45588;51.598;5.618;2022-12-18T02:39:00;45.40;;;20.23;;
59728;SDS011;45588;51.598;5.618;2022-12-18T02:41:26;42.92;;;21.42;;
59728;SDS011;45588;51.598;5.618;2022-12-18T02:43:56;44.95;;;21.85;;
59728;SDS011;45588;51.598;5.618;2022-12-18T02:46:32;50.17;;;22.65;;
59728;SDS011;45588;51.598;5.618;2022-12-18T02:49:11;46.90;;;20.65;;
59728;SDS011;45588;51.598;5.618;2022-12-18T02:54:16;38.40;;;19.48;;
59728;SDS011;45588;51.598;5.618;2022-12-18T02:56:46;39.22;;;19.73;;
59728;SDS011;45588;51.598;5.618;2022-12-18T02:59:15;44.45;;;19.73;;
59728;SDS011;45588;51.598;5.618;2022-12-18T03:01:51;38.42;;;17.88;;
59728;SDS011;45588;51.598;5.618;2022-12-18T03:04:19;36.65;;;18.45;;
59728;SDS011;45588;51.598;5.618;2022-12-18T03:06:47;45.97;;;19.23;;
59728;SDS011;45588;51.598;5.618;2022-12-18T03:09:18;42.58;;;21.58;;
59728;SDS011;45588;51.598;5.618;2022-12-18T03:11:45;41.90;;;21.30;;
59728;SDS011;45588;51.598;5.618;2022-12-18T03:14:30;43.97;;;20.67;;
59728;SDS011;45588;51.598;5.618;2022-12-18T03:16:57;40.20;;;19.45;;
59728;SDS011;45588;51.598;5.618;2022-12-18T03:19:25;34.90;;;17.77;;
59728;SDS011;45588;51.598;5.618;2022-12-18T03:21:51;39.83;;;18.30;;
59728;SDS011;45588;51.598;5.618;2022-12-18T03:24:18;31.75;;;17.60;;
59728;SDS011;45588;51.598;5.618;2022-12-18T03:26:44;36.28;;;17.77;;
59728;SDS011;45588;51.598;5.618;2022-12-18T03:29:12;36.78;;;19.00;;
59728;SDS011;45588;51.598;5.618;2022-12-18T03:31:41;37.58;;;18.35;;
59728;SDS011;45588;51.598;5.618;2022-12-18T03:34:14;28.95;;;15.38;;
59728;SDS011;45588;51.598;5.618;2022-12-18T03:36:40;41.53;;;19.25;;
59728;SDS011;45588;51.598;5.618;2022-12-18T03:39:05;38.15;;;19.30;;
59728;SDS011;45588;51.598;5.618;2022-12-18T03:41:31;38.47;;;17.92;;
59728;SDS011;45588;51.598;5.618;2022-12-18T03:44:20;37.22;;;18.40;;
59728;SDS011;45588;51.598;5.618;2022-12-18T03:49:18;40.70;;;19.13;;
59728;SDS011;45588;51.598;5.618;2022-12-18T03:51:48;43.22;;;20.33;;
59728;SDS011;45588;51.598;5.618;2022-12-18T03:54:14;34.35;;;19.10;;
59728;SDS011;45588;51.598;5.618;2022-12-18T03:56:42;32.13;;;17.02;;
59728;SDS011;45588;51.598;5.618;2022-12-18T03:59:08;34.58;;;17.73;;
59728;SDS011;45588;51.598;5.618;2022-12-18T04:01:35;39.10;;;18.30;;
59728;SDS011;45588;51.598;5.618;2022-12-18T04:04:02;39.53;;;19.30;;
59728;SDS011;45588;51.598;5.618;2022-12-18T04:06:28;38.80;;;18.08;;
59728;SDS011;45588;51.598;5.618;2022-12-18T04:08:54;32.42;;;16.65;;
59728;SDS011;45588;51.598;5.618;2022-12-18T04:11:19;38.65;;;18.15;;
59728;SDS011;45588;51.598;5.618;2022-12-18T04:13:44;28.42;;;15.75;;
59728;SDS011;45588;51.598;5.618;2022-12-18T04:16:10;31.77;;;17.77;;
59728;SDS011;45588;51.598;5.618;2022-12-18T04:18:35;34.03;;;17.88;;
59728;SDS011;45588;51.598;5.618;2022-12-18T04:21:00;31.88;;;17.08;;
59728;SDS011;45588;51.598;5.618;2022-12-18T04:23:26;28.42;;;14.50;;
59728;SDS011;45588;51.598;5.618;2022-12-18T04:25:51;27.60;;;15.48;;
59728;SDS011;45588;51.598;5.618;2022-12-18T04:28:16;38.03;;;17.30;;
59728;SDS011;45588;51.598;5.618;2022-12-18T04:30:41;41.53;;;17.45;;
59728;SDS011;45588;51.598;5.618;2022-12-18T04:33:10;30.90;;;16.75;;
59728;SDS011;45588;51.598;5.618;2022-12-18T04:35:36;32.47;;;16.38;;
59728;SDS011;45588;51.598;5.618;2022-12-18T04:38:01;36.38;;;15.07;;
59728;SDS011;45588;51.598;5.618;2022-12-18T04:40:26;25.27;;;15.20;;
59728;SDS011;45588;51.598;5.618;2022-12-18T04:42:51;26.85;;;13.98;;
59728;SDS011;45588;51.598;5.618;2022-12-18T04:45:16;18.27;;;11.85;;
59728;SDS011;45588;51.598;5.618;2022-12-18T04:47:42;27.63;;;14.73;;
59728;SDS011;45588;51.598;5.618;2022-12-18T04:50:07;29.88;;;16.60;;
59728;SDS011;45588;51.598;5.618;2022-12-18T04:52:32;26.60;;;15.10;;
59728;SDS011;45588;51.598;5.618;2022-12-18T04:54:57;26.13;;;16.05;;
59728;SDS011;45588;51.598;5.618;2022-12-18T04:57:23;32.17;;;16.48;;
59728;SDS011;45588;51.598;5.618;2022-12-18T04:59:48;28.38;;;14.45;;
59728;SDS011;45588;51.598;5.618;2022-12-18T05:02:13;34.28;;;16.35;;
59728;SDS011;45588;51.598;5.618;2022-12-18T05:04:38;29.45;;;17.48;;
59728;SDS011;45588;51.598;5.618;2022-12-18T05:07:03;25.92;;;14.48;;
59728;SDS011;45588;51.598;5.618;2022-12-18T05:09:29;28.58;;;15.32;;
59728;SDS011;45588;51.598;5.618;2022-12-18T05:11:54;29.17;;;14.85;;
59728;SDS011;45588;51.598;5.618;2022-12-18T05:14:19;25.65;;;15.07;;
59728;SDS011;45588;51.598;5.618;2022-12-18T05:16:44;30.35;;;14.45;;
59728;SDS011;45588;51.598;5.618;2022-12-18T05:19:09;32.60;;;15.90;;
59728;SDS011;45588;51.598;5.618;2022-12-18T05:21:35;28.65;;;13.32;;
59728;SDS011;45588;51.598;5.618;2022-12-18T05:24:00;29.85;;;14.60;;
59728;SDS011;45588;51.598;5.618;2022-12-18T05:26:25;24.30;;;14.02;;
59728;SDS011;45588;51.598;5.618;2022-12-18T05:28:50;27.80;;;14.30;;
59728;SDS011;45588;51.598;5.618;2022-12-18T05:31:15;26.90;;;13.68;;
59728;SDS011;45588;51.598;5.618;2022-12-18T05:33:41;26.15;;;14.70;;
59728;SDS011;45588;51.598;5.618;2022-12-18T05:36:07;30.33;;;15.65;;
59728;SDS011;45588;51.598;5.618;2022-12-18T05:38:33;23.60;;;12.93;;
59728;SDS011;45588;51.598;5.618;2022-12-18T05:40:58;32.70;;;15.93;;
59728;SDS011;45588;51.598;5.618;2022-12-18T05:43:24;26.58;;;15.15;;
59728;SDS011;45588;51.598;5.618;2022-12-18T05:45:50;27.23;;;14.02;;
59728;SDS011;45588;51.598;5.618;2022-12-18T05:48:16;23.27;;;13.00;;
59728;SDS011;45588;51.598;5.618;2022-12-18T05:50:41;30.52;;;14.50;;
59728;SDS011;45588;51.598;5.618;2022-12-18T05:53:07;23.60;;;12.65;;
59728;SDS011;45588;51.598;5.618;2022-12-18T05:55:33;25.35;;;13.43;;
59728;SDS011;45588;51.598;5.618;2022-12-18T05:57:59;23.08;;;12.20;;
59728;SDS011;45588;51.598;5.618;2022-12-18T06:00:25;28.13;;;14.57;;
59728;SDS011;45588;51.598;5.618;2022-12-18T06:02:50;30.02;;;13.82;;
59728;SDS011;45588;51.598;5.618;2022-12-18T06:05:16;27.23;;;14.63;;
59728;SDS011;45588;51.598;5.618;2022-12-18T06:07:41;31.70;;;14.68;;
59728;SDS011;45588;51.598;5.618;2022-12-18T06:10:06;23.73;;;13.88;;
59728;SDS011;45588;51.598;5.618;2022-12-18T06:12:31;20.00;;;10.93;;
59728;SDS011;45588;51.598;5.618;2022-12-18T06:14:58;24.35;;;15.60;;
59728;SDS011;45588;51.598;5.618;2022-12-18T06:17:26;26.38;;;14.65;;
59728;SDS011;45588;51.598;5.618;2022-12-18T06:19:52;30.25;;;15.00;;
59728;SDS011;45588;51.598;5.618;2022-12-18T06:22:17;27.20;;;12.80;;
59728;SDS011;45588;51.598;5.618;2022-12-18T06:24:42;26.88;;;14.82;;
59728;SDS011;45588;51.598;5.618;2022-12-18T06:27:07;26.80;;;13.52;;
59728;SDS011;45588;51.598;5.618;2022-12-18T06:29:32;26.08;;;13.75;;
59728;SDS011;45588;51.598;5.618;2022-12-18T06:31:57;28.63;;;15.23;;
59728;SDS011;45588;51.598;5.618;2022-12-18T06:34:23;29.40;;;14.73;;
59728;SDS011;45588;51.598;5.618;2022-12-18T06:36:48;28.90;;;13.88;;
59728;SDS011;45588;51.598;5.618;2022-12-18T06:39:13;27.23;;;13.52;;
59728;SDS011;45588;51.598;5.618;2022-12-18T06:41:38;28.80;;;13.75;;
59728;SDS011;45588;51.598;5.618;2022-12-18T06:44:03;26.38;;;13.65;;
59728;SDS011;45588;51.598;5.618;2022-12-18T06:46:29;24.00;;;13.10;;
59728;SDS011;45588;51.598;5.618;2022-12-18T06:48:54;28.10;;;11.73;;
59728;SDS011;45588;51.598;5.618;2022-12-18T06:51:20;26.10;;;15.10;;
59728;SDS011;45588;51.598;5.618;2022-12-18T06:53:45;26.27;;;15.35;;
59728;SDS011;45588;51.598;5.618;2022-12-18T06:56:10;26.38;;;16.05;;
59728;SDS011;45588;51.598;5.618;2022-12-18T06:58:36;28.58;;;15.48;;
59728;SDS011;45588;51.598;5.618;2022-12-18T07:01:02;31.70;;;16.10;;
59728;SDS011;45588;51.598;5.618;2022-12-18T07:03:27;31.17;;;16.27;;
59728;SDS011;45588;51.598;5.618;2022-12-18T07:05:53;35.70;;;17.33;;
59728;SDS011;45588;51.598;5.618;2022-12-18T07:08:18;27.58;;;16.05;;
59728;SDS011;45588;51.598;5.618;2022-12-18T07:10:43;26.58;;;15.70;;
59728;SDS011;45588;51.598;5.618;2022-12-18T07:13:09;34.15;;;18.33;;
59728;SDS011;45588;51.598;5.618;2022-12-18T07:15:34;31.27;;;14.95;;
59728;SDS011;45588;51.598;5.618;2022-12-18T07:17:59;30.52;;;13.95;;
59728;SDS011;45588;51.598;5.618;2022-12-18T07:20:24;25.17;;;15.55;;
59728;SDS011;45588;51.598;5.618;2022-12-18T07:22:49;29.08;;;14.40;;
59728;SDS011;45588;51.598;5.618;2022-12-18T07:25:15;30.63;;;16.10;;
59728;SDS011;45588;51.598;5.618;2022-12-18T07:27:40;34.22;;;15.07;;
59728;SDS011;45588;51.598;5.618;2022-12-18T07:30:05;34.90;;;16.67;;
59728;SDS011;45588;51.598;5.618;2022-12-18T07:32:31;30.02;;;15.98;;
59728;SDS011;45588;51.598;5.618;2022-12-18T07:34:56;28.85;;;16.48;;
59728;SDS011;45588;51.598;5.618;2022-12-18T07:37:21;27.77;;;17.25;;
59728;SDS011;45588;51.598;5.618;2022-12-18T07:39:46;33.63;;;15.32;;
59728;SDS011;45588;51.598;5.618;2022-12-18T07:42:11;28.42;;;14.35;;
59728;SDS011;45588;51.598;5.618;2022-12-18T07:44:55;28.27;;;14.48;;
59728;SDS011;45588;51.598;5.618;2022-12-18T07:47:20;22.50;;;13.05;;
59728;SDS011;45588;51.598;5.618;2022-12-18T07:49:45;23.52;;;13.80;;
59728;SDS011;45588;51.598;5.618;2022-12-18T07:52:10;23.33;;;13.95;;
59728;SDS011;45588;51.598;5.618;2022-12-18T07:54:37;29.67;;;16.75;;
59728;SDS011;45588;51.598;5.618;2022-12-18T07:57:02;31.10;;;13.65;;
59728;SDS011;45588;51.598;5.618;2022-12-18T07:59:27;30.98;;;16.00;;
59728;SDS011;45588;51.598;5.618;2022-12-18T08:01:52;33.60;;;17.00;;
59728;SDS011;45588;51.598;5.618;2022-12-18T08:04:18;28.23;;;16.50;;
59728;SDS011;45588;51.598;5.618;2022-12-18T08:06:43;31.92;;;16.25;;
59728;SDS011;45588;51.598;5.618;2022-12-18T08:09:09;28.80;;;14.80;;
59728;SDS011;45588;51.598;5.618;2022-12-18T08:11:34;33.17;;;18.38;;
59728;SDS011;45588;51.598;5.618;2022-12-18T08:13:59;30.83;;;16.85;;
59728;SDS011;45588;51.598;5.618;2022-12-18T08:16:24;31.52;;;14.88;;
59728;SDS011;45588;51.598;5.618;2022-12-18T08:18:51;30.15;;;15.98;;
59728;SDS011;45588;51.598;5.618;2022-12-18T08:21:22;33.30;;;16.80;;
59728;SDS011;45588;51.598;5.618;2022-12-18T08:23:48;31.65;;;17.33;;
59728;SDS011;45588;51.598;5.618;2022-12-18T08:26:13;34.88;;;18.98;;
59728;SDS011;45588;51.598;5.618;2022-12-18T08:28:38;27.02;;;14.85;;
59728;SDS011;45588;51.598;5.618;2022-12-18T08:31:04;28.63;;;16.63;;
59728;SDS011;45588;51.598;5.618;2022-12-18T08:33:29;28.73;;;16.35;;
59728;SDS011;45588;51.598;5.618;2022-12-18T08:35:54;26.23;;;14.90;;
59728;SDS011;45588;51.598;5.618;2022-12-18T08:38:19;29.85;;;16.17;;
59728;SDS011;45588;51.598;5.618;2022-12-18T08:40:45;29.27;;;16.33;;
59728;SDS011;45588;51.598;5.618;2022-12-18T08:43:10;29.67;;;17.60;;
59728;SDS011;45588;51.598;5.618;2022-12-18T08:45:54;36.45;;;17.52;;
59728;SDS011;45588;51.598;5.618;2022-12-18T08:48:19;30.42;;;16.35;;
59728;SDS011;45588;51.598;5.618;2022-12-18T08:50:53;29.02;;;15.82;;
59728;SDS011;45588;51.598;5.618;2022-12-18T08:53:18;25.88;;;14.15;;
59728;SDS011;45588;51.598;5.618;2022-12-18T08:55:43;28.30;;;16.35;;
59728;SDS011;45588;51.598;5.618;2022-12-18T08:58:08;33.17;;;16.65;;
59728;SDS011;45588;51.598;5.618;2022-12-18T09:00:33;38.92;;;17.67;;
59728;SDS011;45588;51.598;5.618;2022-12-18T09:02:59;30.30;;;17.40;;
59728;SDS011;45588;51.598;5.618;2022-12-18T09:05:24;37.67;;;19.67;;
59728;SDS011;45588;51.598;5.618;2022-12-18T09:07:49;28.05;;;15.10;;
59728;SDS011;45588;51.598;5.618;2022-12-18T09:10:14;37.58;;;17.98;;
59728;SDS011;45588;51.598;5.618;2022-12-18T09:12:39;37.97;;;18.42;;
59728;SDS011;45588;51.598;5.618;2022-12-18T09:15:05;35.08;;;19.85;;
59728;SDS011;45588;51.598;5.618;2022-12-18T09:17:30;35.10;;;19.40;;
59728;SDS011;45588;51.598;5.618;2022-12-18T09:19:55;35.88;;;18.88;;
59728;SDS011;45588;51.598;5.618;2022-12-18T09:22:20;29.85;;;17.98;;
59728;SDS011;45588;51.598;5.618;2022-12-18T09:24:45;30.90;;;16.23;;
59728;SDS011;45588;51.598;5.618;2022-12-18T09:27:11;30.42;;;15.27;;
59728;SDS011;45588;51.598;5.618;2022-12-18T09:29:36;31.67;;;18.70;;
59728;SDS011;45588;51.598;5.618;2022-12-18T09:32:01;27.42;;;16.02;;
59728;SDS011;45588;51.598;5.618;2022-12-18T09:34:26;29.88;;;16.90;;
59728;SDS011;45588;51.598;5.618;2022-12-18T09:36:51;29.50;;;17.63;;
59728;SDS011;45588;51.598;5.618;2022-12-18T09:39:17;31.98;;;18.23;;
59728;SDS011;45588;51.598;5.618;2022-12-18T09:41:43;34.30;;;17.27;;
59728;SDS011;45588;51.598;5.618;2022-12-18T09:44:11;37.15;;;19.58;;
59728;SDS011;45588;51.598;5.618;2022-12-18T09:46:40;45.28;;;21.20;;
59728;SDS011;45588;51.598;5.618;2022-12-18T09:49:06;28.52;;;15.40;;
59728;SDS011;45588;51.598;5.618;2022-12-18T09:51:36;31.20;;;18.63;;
59728;SDS011;45588;51.598;5.618;2022-12-18T09:54:06;32.33;;;16.83;;
59728;SDS011;45588;51.598;5.618;2022-12-18T09:56:34;31.50;;;16.25;;
59728;SDS011;45588;51.598;5.618;2022-12-18T09:59:01;29.77;;;16.85;;
59728;SDS011;45588;51.598;5.618;2022-12-18T10:01:27;31.48;;;16.88;;
59728;SDS011;45588;51.598;5.618;2022-12-18T10:03:52;21.05;;;13.73;;
59728;SDS011;45588;51.598;5.618;2022-12-18T10:06:23;34.58;;;18.30;;
59728;SDS011;45588;51.598;5.618;2022-12-18T10:13:58;34.22;;;17.08;;
59728;SDS011;45588;51.598;5.618;2022-12-18T10:21:34;32.95;;;19.10;;
59728;SDS011;45588;51.598;5.618;2022-12-18T10:26:44;36.35;;;19.08;;
59728;SDS011;45588;51.598;5.618;2022-12-18T10:29:10;28.30;;;16.73;;
59728;SDS011;45588;51.598;5.618;2022-12-18T10:31:36;30.52;;;18.33;;
59728;SDS011;45588;51.598;5.618;2022-12-18T10:34:02;27.55;;;16.08;;
59728;SDS011;45588;51.598;5.618;2022-12-18T10:36:27;27.75;;;15.05;;
59728;SDS011;45588;51.598;5.618;2022-12-18T10:38:52;27.13;;;14.65;;
59728;SDS011;45588;51.598;5.618;2022-12-18T10:43:43;24.73;;;14.18;;
59728;SDS011;45588;51.598;5.618;2022-12-18T10:48:55;25.58;;;17.02;;
59728;SDS011;45588;51.598;5.618;2022-12-18T10:51:31;29.67;;;15.85;;
59728;SDS011;45588;51.598;5.618;2022-12-18T10:54:05;30.48;;;15.32;;
59728;SDS011;45588;51.598;5.618;2022-12-18T10:56:32;29.55;;;16.85;;
59728;SDS011;45588;51.598;5.618;2022-12-18T10:59:02;27.10;;;14.90;;
59728;SDS011;45588;51.598;5.618;2022-12-18T11:01:28;27.00;;;14.00;;
59728;SDS011;45588;51.598;5.618;2022-12-18T11:06:22;32.72;;;17.25;;
59728;SDS011;45588;51.598;5.618;2022-12-18T11:09:02;32.05;;;17.70;;
59728;SDS011;45588;51.598;5.618;2022-12-18T11:11:28;30.55;;;15.77;;
59728;SDS011;45588;51.598;5.618;2022-12-18T11:14:04;28.90;;;17.38;;
59728;SDS011;45588;51.598;5.618;2022-12-18T11:16:31;28.15;;;16.15;;
59728;SDS011;45588;51.598;5.618;2022-12-18T11:21:41;28.77;;;16.88;;
59728;SDS011;45588;51.598;5.618;2022-12-18T11:24:13;26.98;;;16.05;;
59728;SDS011;45588;51.598;5.618;2022-12-18T11:26:42;26.80;;;16.92;;
59728;SDS011;45588;51.598;5.618;2022-12-18T11:29:09;31.85;;;17.90;;
59728;SDS011;45588;51.598;5.618;2022-12-18T11:31:35;27.55;;;17.35;;
59728;SDS011;45588;51.598;5.618;2022-12-18T11:34:03;28.55;;;15.32;;
59728;SDS011;45588;51.598;5.618;2022-12-18T11:36:33;33.25;;;17.45;;
59728;SDS011;45588;51.598;5.618;2022-12-18T11:44:11;23.33;;;14.40;;
59728;SDS011;45588;51.598;5.618;2022-12-18T11:46:40;26.23;;;14.05;;
59728;SDS011;45588;51.598;5.618;2022-12-18T11:49:11;27.42;;;14.43;;
59728;SDS011;45588;51.598;5.618;2022-12-18T11:51:39;27.15;;;14.63;;
59728;SDS011;45588;51.598;5.618;2022-12-18T11:54:13;30.13;;;17.17;;
59728;SDS011;45588;51.598;5.618;2022-12-18T11:56:44;24.42;;;15.02;;
59728;SDS011;45588;51.598;5.618;2022-12-18T12:01:55;25.88;;;15.75;;
59728;SDS011;45588;51.598;5.618;2022-12-18T12:12:10;27.88;;;14.85;;
59728;SDS011;45588;51.598;5.618;2022-12-18T12:38:07;27.05;;;15.48;;
59728;SDS011;45588;51.598;5.618;2022-12-18T12:40:34;27.90;;;17.23;;
59728;SDS011;45588;51.598;5.618;2022-12-18T12:43:02;30.13;;;16.73;;
59728;SDS011;45588;51.598;5.618;2022-12-18T12:45:40;26.15;;;14.70;;
59728;SDS011;45588;51.598;5.618;2022-12-18T12:48:09;28.30;;;15.10;;
59728;SDS011;45588;51.598;5.618;2022-12-18T12:50:35;28.52;;;14.77;;
59728;SDS011;45588;51.598;5.618;2022-12-18T12:53:05;28.95;;;17.10;;
59728;SDS011;45588;51.598;5.618;2022-12-18T12:55:30;27.17;;;15.38;;
59728;SDS011;45588;51.598;5.618;2022-12-18T12:58:04;28.88;;;15.20;;
59728;SDS011;45588;51.598;5.618;2022-12-18T13:00:33;31.92;;;15.82;;
59728;SDS011;45588;51.598;5.618;2022-12-18T13:03:04;19.50;;;12.75;;
59728;SDS011;45588;51.598;5.618;2022-12-18T13:05:40;27.58;;;12.55;;
59728;SDS011;45588;51.598;5.618;2022-12-18T13:08:10;25.60;;;14.95;;
59728;SDS011;45588;51.598;5.618;2022-12-18T13:13:02;29.60;;;14.38;;
59728;SDS011;45588;51.598;5.618;2022-12-18T13:15:29;22.92;;;13.52;;
59728;SDS011;45588;51.598;5.618;2022-12-18T13:20:36;25.27;;;15.15;;
59728;SDS011;45588;51.598;5.618;2022-12-18T13:23:17;26.63;;;15.32;;
59728;SDS011;45588;51.598;5.618;2022-12-18T13:25:43;33.85;;;16.77;;
59728;SDS011;45588;51.598;5.618;2022-12-18T13:28:10;28.08;;;14.13;;
59728;SDS011;45588;51.598;5.618;2022-12-18T13:35:40;25.10;;;15.68;;
59728;SDS011;45588;51.598;5.618;2022-12-18T13:45:48;29.77;;;16.30;;
59728;SDS011;45588;51.598;5.618;2022-12-18T13:48:22;30.85;;;15.43;;
59728;SDS011;45588;51.598;5.618;2022-12-18T13:50:55;33.38;;;15.23;;
59728;SDS011;45588;51.598;5.618;2022-12-18T13:53:23;28.85;;;17.25;;
59728;SDS011;45588;51.598;5.618;2022-12-18T13:55:49;28.13;;;15.30;;
59728;SDS011;45588;51.598;5.618;2022-12-18T13:58:14;33.72;;;16.98;;
59728;SDS011;45588;51.598;5.618;2022-12-18T14:00:43;26.90;;;15.98;;
59728;SDS011;45588;51.598;5.618;2022-12-18T14:03:25;29.67;;;16.33;;
59728;SDS011;45588;51.598;5.618;2022-12-18T14:06:01;31.38;;;15.88;;
59728;SDS011;45588;51.598;5.618;2022-12-18T14:08:31;27.63;;;16.02;;
59728;SDS011;45588;51.598;5.618;2022-12-18T14:10:57;23.77;;;14.88;;
59728;SDS011;45588;51.598;5.618;2022-12-18T14:13:32;30.98;;;16.27;;
59728;SDS011;45588;51.598;5.618;2022-12-18T14:16:00;25.23;;;14.15;;
59728;SDS011;45588;51.598;5.618;2022-12-18T14:18:26;25.52;;;14.45;;
59728;SDS011;45588;51.598;5.618;2022-12-18T14:20:54;32.92;;;17.25;;
59728;SDS011;45588;51.598;5.618;2022-12-18T14:23:27;28.00;;;16.75;;
59728;SDS011;45588;51.598;5.618;2022-12-18T14:25:53;34.95;;;18.13;;
59728;SDS011;45588;51.598;5.618;2022-12-18T14:28:18;28.58;;;15.82;;
59728;SDS011;45588;51.598;5.618;2022-12-18T14:30:44;29.40;;;16.55;;
59728;SDS011;45588;51.598;5.618;2022-12-18T14:33:11;33.45;;;16.10;;
59728;SDS011;45588;51.598;5.618;2022-12-18T14:35:37;32.33;;;16.10;;
59728;SDS011;45588;51.598;5.618;2022-12-18T14:40:43;30.58;;;17.52;;
59728;SDS011;45588;51.598;5.618;2022-12-18T14:43:11;31.67;;;17.42;;
59728;SDS011;45588;51.598;5.618;2022-12-18T14:45:37;32.88;;;17.40;;
59728;SDS011;45588;51.598;5.618;2022-12-18T14:48:22;34.20;;;16.02;;
59728;SDS011;45588;51.598;5.618;2022-12-18T14:53:48;34.10;;;18.38;;
59728;SDS011;45588;51.598;5.618;2022-12-18T14:56:24;27.85;;;17.23;;
59728;SDS011;45588;51.598;5.618;2022-12-18T15:01:39;35.42;;;17.00;;
59728;SDS011;45588;51.598;5.618;2022-12-18T15:04:03;33.45;;;18.52;;
59728;SDS011;45588;51.598;5.618;2022-12-18T15:06:30;33.50;;;15.77;;
59728;SDS011;45588;51.598;5.618;2022-12-18T15:08:57;34.50;;;17.80;;
59728;SDS011;45588;51.598;5.618;2022-12-18T15:11:32;33.10;;;16.17;;
59728;SDS011;45588;51.598;5.618;2022-12-18T15:13:58;30.92;;;17.55;;
59728;SDS011;45588;51.598;5.618;2022-12-18T15:16:25;28.25;;;16.38;;
59728;SDS011;45588;51.598;5.618;2022-12-18T15:18:50;36.30;;;18.60;;
59728;SDS011;45588;51.598;5.618;2022-12-18T15:21:17;29.55;;;17.17;;
59728;SDS011;45588;51.598;5.618;2022-12-18T15:23:49;27.95;;;16.42;;
59728;SDS011;45588;51.598;5.618;2022-12-18T15:26:16;30.55;;;15.18;;
59728;SDS011;45588;51.598;5.618;2022-12-18T15:28:48;30.80;;;15.80;;
59728;SDS011;45588;51.598;5.618;2022-12-18T15:36:08;31.02;;;16.85;;
59728;SDS011;45588;51.598;5.618;2022-12-18T15:38:33;35.78;;;20.30;;
59728;SDS011;45588;51.598;5.618;2022-12-18T15:40:59;33.33;;;17.85;;
59728;SDS011;45588;51.598;5.618;2022-12-18T15:43:24;31.17;;;17.88;;
59728;SDS011;45588;51.598;5.618;2022-12-18T15:48:39;33.28;;;16.85;;
59728;SDS011;45588;51.598;5.618;2022-12-18T15:51:08;34.60;;;16.02;;
59728;SDS011;45588;51.598;5.618;2022-12-18T15:53:34;31.45;;;16.20;;
59728;SDS011;45588;51.598;5.618;2022-12-18T15:55:59;31.02;;;16.75;;
59728;SDS011;45588;51.598;5.618;2022-12-18T15:58:43;34.25;;;19.27;;
59728;SDS011;45588;51.598;5.618;2022-12-18T16:01:08;25.60;;;15.88;;
59728;SDS011;45588;51.598;5.618;2022-12-18T16:03:34;35.92;;;19.65;;
59728;SDS011;45588;51.598;5.618;2022-12-18T16:05:59;36.25;;;17.25;;
59728;SDS011;45588;51.598;5.618;2022-12-18T16:08:26;32.63;;;17.67;;
59728;SDS011;45588;51.598;5.618;2022-12-18T16:10:52;29.50;;;17.05;;
59728;SDS011;45588;51.598;5.618;2022-12-18T16:13:17;30.20;;;17.13;;
59728;SDS011;45588;51.598;5.618;2022-12-18T16:15:44;30.77;;;15.98;;